Time;durP1;ratioP1;P1;durP2;ratioP2;P2;SDS_P1;SDS_P2;PMS_P1;PMS_P2;Temp;Humidity;BMP_temperature;BMP_pressure;BME280_temperature;BME280_humidity;BME280_pressure;Samples;Min_cycle;Max_cycle;Signal;HPM_P1;HPM_P2
2022/09/10 00:00:58;;;;;;;11.48;6.32;;;15.10;99.90;;;;;;4995199;28;20146;-71
2022/09/10 00:03:24;;;;;;;11.23;6.32;;;15.10;99.90;;;;;;5022737;28;20242;-72
2022/09/10 00:05:50;;;;;;;14.23;6.90;;;15.10;99.90;;;;;;5023036;28;20034;-71
2022/09/10 00:08:17;;;;;;;13.95;7.18;;;15.10;99.90;;;;;;5025092;28;20049;-71
2022/09/10 00:10:46;;;;;;;12.40;6.75;;;15.10;99.90;;;;;;5016459;28;20053;-71
2022/09/10 00:13:14;;;;;;;12.32;6.85;;;15.00;99.90;;;;;;5023504;28;20099;-71
2022/09/10 00:15:42;;;;;;;13.30;6.85;;;15.10;99.90;;;;;;5016018;28;20407;-71
2022/09/10 00:18:09;;;;;;;13.65;7.43;;;14.80;99.90;;;;;;5053602;28;20053;-71
2022/09/10 00:20:49;;;;;;;15.45;6.80;;;15.00;99.90;;;;;;5022600;28;20042;-70
2022/09/10 00:23:17;;;;;;;15.95;7.45;;;15.10;99.90;;;;;;5024577;28;20053;-71
2022/09/10 00:25:48;;;;;;;12.23;7.05;;;15.10;99.90;;;;;;5026262;28;20033;-71
2022/09/10 00:28:15;;;;;;;12.75;7.35;;;15.10;99.90;;;;;;5019016;28;20465;-70
2022/09/10 00:30:45;;;;;;;12.23;7.22;;;15.10;99.90;;;;;;5008998;28;20045;-70
2022/09/10 00:33:13;;;;;;;11.15;6.78;;;15.10;99.90;;;;;;5018144;28;20415;-70
2022/09/10 00:35:39;;;;;;;12.88;7.47;;;15.20;99.90;;;;;;5021727;28;20055;-70
2022/09/10 00:38:06;;;;;;;11.93;7.25;;;15.20;99.90;;;;;;5023960;28;20049;-71
2022/09/10 00:40:32;;;;;;;12.60;7.38;;;15.20;99.90;;;;;;5029551;28;20065;-71
2022/09/10 00:42:58;;;;;;;12.50;7.38;;;15.20;99.90;;;;;;5025796;28;20272;-71
2022/09/10 00:45:28;;;;;;;13.00;7.82;;;15.30;99.90;;;;;;5005163;28;20308;-71
2022/09/10 00:48:11;;;;;;;12.27;7.60;;;15.20;99.90;;;;;;5023942;28;20598;-71
2022/09/10 00:50:41;;;;;;;13.93;7.82;;;15.20;99.90;;;;;;5027522;28;20064;-71
2022/09/10 00:53:11;;;;;;;13.90;7.40;;;15.20;99.90;;;;;;5030687;28;20410;-71
2022/09/10 00:55:39;;;;;;;13.73;8.23;;;15.20;99.90;;;;;;5021414;28;20115;-71
2022/09/10 00:58:09;;;;;;;11.95;7.53;;;15.20;99.90;;;;;;5023047;28;20041;-70
2022/09/10 01:00:35;;;;;;;14.02;8.35;;;15.30;99.90;;;;;;4997374;28;20083;-71
2022/09/10 01:03:05;;;;;;;14.35;8.30;;;15.20;99.90;;;;;;5010614;28;20030;-70
2022/09/10 01:05:31;;;;;;;12.68;8.30;;;15.20;99.90;;;;;;5023533;28;20042;-71
2022/09/10 01:07:57;;;;;;;12.60;8.18;;;15.20;99.90;;;;;;5012369;28;21070;-71
2022/09/10 01:10:38;;;;;;;13.20;7.80;;;15.30;99.90;;;;;;5021622;28;20037;-71
2022/09/10 01:13:32;;;;;;;14.75;8.82;;;15.20;99.90;;;;;;5020237;28;20052;-72
2022/09/10 01:16:03;;;;;;;12.88;8.45;;;15.30;99.90;;;;;;5027161;28;20103;-71
2022/09/10 01:18:38;;;;;;;12.90;8.20;;;15.30;99.90;;;;;;4991167;28;20107;-72
2022/09/10 01:21:10;;;;;;;13.85;9.10;;;15.20;99.90;;;;;;5021955;28;20375;-71
2022/09/10 01:24:04;;;;;;;15.13;9.07;;;15.30;99.90;;;;;;4993729;28;20045;-71
2022/09/10 01:27:05;;;;;;;15.48;9.18;;;15.20;99.90;;;;;;5020661;28;20041;-71
2022/09/10 01:29:43;;;;;;;13.70;8.35;;;15.20;99.90;;;;;;5009988;28;20041;-70
2022/09/10 01:32:57;;;;;;;12.25;8.13;;;15.20;99.90;;;;;;5020392;28;20050;-71
2022/09/10 01:35:31;;;;;;;14.00;8.68;;;15.20;99.90;;;;;;4964612;28;20528;-71
2022/09/10 01:38:00;;;;;;;12.90;8.43;;;15.20;99.90;;;;;;4980684;28;20137;-71
2022/09/10 01:40:29;;;;;;;14.52;9.10;;;15.20;99.90;;;;;;5005555;28;20057;-71
2022/09/10 01:43:05;;;;;;;12.27;8.25;;;15.20;99.90;;;;;;5025419;28;20037;-71
2022/09/10 01:45:50;;;;;;;13.13;8.88;;;15.30;99.90;;;;;;5018601;28;20164;-71
2022/09/10 01:48:38;;;;;;;14.68;8.73;;;15.30;99.90;;;;;;5018550;28;20393;-71
2022/09/10 01:51:10;;;;;;;14.05;9.00;;;15.20;99.90;;;;;;5021707;28;20087;-70
2022/09/10 01:53:46;;;;;;;14.73;9.27;;;15.30;99.90;;;;;;5015853;28;20049;-71
2022/09/10 01:56:15;;;;;;;14.05;9.82;;;15.30;99.90;;;;;;5025942;28;20048;-71
2022/09/10 01:58:42;;;;;;;13.25;9.05;;;15.30;99.90;;;;;;5025766;28;21817;-70
2022/09/10 02:01:27;;;;;;;17.10;10.50;;;15.30;99.90;;;;;;5048422;28;20121;-71
2022/09/10 02:03:58;;;;;;;14.05;9.50;;;15.30;99.90;;;;;;5013877;28;20056;-71
2022/09/10 02:06:28;;;;;;;14.13;9.30;;;15.30;99.90;;;;;;5022278;28;20577;-71
2022/09/10 02:08:57;;;;;;;14.60;9.65;;;15.30;99.90;;;;;;5009843;28;20116;-70
2022/09/10 02:11:23;;;;;;;15.00;9.98;;;15.30;99.90;;;;;;4989804;28;20121;-71
2022/09/10 02:13:49;;;;;;;16.67;10.65;;;15.30;99.90;;;;;;5001017;28;20041;-70
2022/09/10 02:16:32;;;;;;;14.88;10.07;;;15.30;99.90;;;;;;5008533;28;20503;-71
2022/09/10 02:18:59;;;;;;;15.27;10.80;;;15.30;99.90;;;;;;5025391;28;20036;-70
2022/09/10 02:21:25;;;;;;;15.55;10.90;;;15.30;99.90;;;;;;5019534;28;20052;-71
2022/09/10 02:23:56;;;;;;;14.85;10.40;;;15.30;99.90;;;;;;5018803;28;20045;-71
2022/09/10 02:26:24;;;;;;;16.48;11.10;;;15.30;99.90;;;;;;5019777;28;20037;-71
2022/09/10 02:28:51;;;;;;;17.95;11.00;;;15.30;99.90;;;;;;5018601;28;20099;-71
2022/09/10 02:31:17;;;;;;;16.77;10.68;;;15.30;99.90;;;;;;4997394;28;20037;-70
2022/09/10 02:33:43;;;;;;;15.50;10.98;;;15.30;99.90;;;;;;5025233;28;20128;-70
2022/09/10 02:36:09;;;;;;;14.68;10.45;;;15.30;99.90;;;;;;5021535;28;20048;-71
2022/09/10 02:38:35;;;;;;;16.42;11.40;;;15.30;99.90;;;;;;5016683;28;20041;-71
2022/09/10 02:41:00;;;;;;;15.38;10.57;;;15.30;99.90;;;;;;5006926;28;20111;-70
2022/09/10 02:43:27;;;;;;;15.77;10.63;;;15.30;99.90;;;;;;5012587;28;20054;-69
2022/09/10 02:45:58;;;;;;;16.55;11.80;;;15.30;99.90;;;;;;5020971;28;20041;-71
2022/09/10 02:48:26;;;;;;;15.30;11.33;;;15.30;99.90;;;;;;4984984;28;20543;-71
2022/09/10 02:50:53;;;;;;;18.70;11.63;;;15.30;99.90;;;;;;5023697;28;20057;-71
2022/09/10 02:53:19;;;;;;;17.60;12.60;;;15.30;99.90;;;;;;5003651;28;20054;-71
2022/09/10 02:55:46;;;;;;;20.27;12.40;;;15.30;99.90;;;;;;5013212;28;20779;-71
2022/09/10 02:58:14;;;;;;;16.42;12.25;;;15.30;99.90;;;;;;5020937;28;20511;-71
2022/09/10 03:00:40;;;;;;;19.90;13.85;;;15.40;99.90;;;;;;5007664;28;20044;-70
2022/09/10 03:03:07;;;;;;;20.63;13.45;;;15.30;99.90;;;;;;5005526;28;20037;-71
2022/09/10 03:05:37;;;;;;;18.25;13.10;;;15.30;99.90;;;;;;5022673;28;20423;-70
2022/09/10 03:08:04;;;;;;;19.92;13.95;;;15.30;99.90;;;;;;5023935;28;20048;-71
2022/09/10 03:10:30;;;;;;;21.52;14.32;;;15.30;99.90;;;;;;5018692;28;20087;-71
2022/09/10 03:12:57;;;;;;;20.40;14.50;;;15.40;99.90;;;;;;4989243;28;20038;-71
2022/09/10 03:15:22;;;;;;;22.30;14.48;;;15.40;99.90;;;;;;5017367;28;20124;-71
2022/09/10 03:17:48;;;;;;;23.25;15.05;;;15.40;99.90;;;;;;5021811;28;20128;-71
2022/09/10 03:20:14;;;;;;;21.52;16.10;;;15.40;99.90;;;;;;5017099;28;20041;-71
2022/09/10 03:22:40;;;;;;;20.77;15.68;;;15.40;99.90;;;;;;4991925;28;20033;-71
2022/09/10 03:25:06;;;;;;;21.15;15.05;;;15.40;99.90;;;;;;4982044;28;20612;-70
2022/09/10 03:27:32;;;;;;;22.95;16.05;;;15.30;99.90;;;;;;4988333;28;20072;-71
2022/09/10 03:29:59;;;;;;;21.17;15.05;;;15.40;99.90;;;;;;5019832;28;20103;-70
2022/09/10 03:32:25;;;;;;;21.05;15.43;;;15.30;99.90;;;;;;5021210;28;20041;-70
2022/09/10 03:34:50;;;;;;;24.15;16.42;;;15.40;99.90;;;;;;5013180;28;20082;-70
2022/09/10 03:37:17;;;;;;;25.13;16.48;;;15.40;99.90;;;;;;5015270;28;20042;-71
2022/09/10 03:39:43;;;;;;;21.67;15.40;;;15.40;99.90;;;;;;5020093;28;20038;-71
2022/09/10 03:42:09;;;;;;;24.15;16.52;;;15.40;99.90;;;;;;5017023;28;20042;-70
2022/09/10 03:44:35;;;;;;;21.42;16.20;;;15.40;99.90;;;;;;5021988;28;20034;-70
2022/09/10 03:47:01;;;;;;;23.92;17.23;;;15.40;99.90;;;;;;5019244;28;20103;-71
2022/09/10 03:49:27;;;;;;;24.80;16.80;;;15.40;99.90;;;;;;5009823;28;20041;-71
2022/09/10 03:51:53;;;;;;;25.10;19.02;;;15.40;99.90;;;;;;5008538;28;20089;-71
2022/09/10 03:54:19;;;;;;;25.50;17.55;;;15.40;99.90;;;;;;5019782;28;20284;-71
2022/09/10 03:56:45;;;;;;;30.88;20.67;;;15.40;99.90;;;;;;5017420;28;20033;-70
2022/09/10 03:59:14;;;;;;;29.23;20.77;;;15.50;99.90;;;;;;5009030;28;20041;-71
2022/09/10 04:01:40;;;;;;;32.05;21.95;;;15.50;99.90;;;;;;4998937;28;20108;-71
2022/09/10 04:04:07;;;;;;;32.88;21.92;;;15.50;99.90;;;;;;5014782;28;20037;-71
2022/09/10 04:06:34;;;;;;;33.20;22.63;;;15.50;99.90;;;;;;5000549;28;20413;-72
2022/09/10 04:09:00;;;;;;;33.95;21.50;;;15.50;99.90;;;;;;5019476;28;20186;-71
2022/09/10 04:11:27;;;;;;;32.45;21.13;;;15.50;99.90;;;;;;4995312;28;20574;-71
2022/09/10 04:13:54;;;;;;;30.23;20.08;;;15.40;99.90;;;;;;5012721;28;20049;-71
2022/09/10 04:16:21;;;;;;;27.00;19.10;;;14.80;99.90;;;;;;5020349;28;20144;-71
2022/09/10 04:18:46;;;;;;;27.92;19.00;;;15.50;99.90;;;;;;5016318;28;20045;-72
2022/09/10 04:21:12;;;;;;;29.52;19.00;;;15.50;99.90;;;;;;5016870;28;20042;-71
2022/09/10 04:23:40;;;;;;;30.17;19.05;;;15.50;99.90;;;;;;5012414;28;20053;-70
2022/09/10 04:26:17;;;;;;;26.15;17.35;;;15.50;99.90;;;;;;5004125;28;20056;-71
2022/09/10 04:28:43;;;;;;;24.33;16.60;;;15.50;99.90;;;;;;5022261;28;20045;-71
2022/09/10 04:31:09;;;;;;;24.90;16.77;;;15.50;99.90;;;;;;5020675;28;20045;-70
2022/09/10 04:33:36;;;;;;;24.98;15.82;;;15.50;99.90;;;;;;5021411;28;20466;-72
2022/09/10 04:36:03;;;;;;;23.45;15.57;;;15.50;99.90;;;;;;5020811;28;20044;-71
2022/09/10 04:38:32;;;;;;;23.63;15.23;;;15.50;99.90;;;;;;5020408;28;20034;-72
2022/09/10 04:41:01;;;;;;;24.25;15.63;;;15.50;99.90;;;;;;5021972;28;20049;-71
2022/09/10 04:43:27;;;;;;;22.20;15.40;;;15.50;99.90;;;;;;5017923;28;20504;-71
2022/09/10 04:45:54;;;;;;;23.23;15.77;;;15.50;99.90;;;;;;5020683;28;20044;-71
2022/09/10 04:48:23;;;;;;;23.17;16.27;;;15.50;99.90;;;;;;4985915;28;20041;-72
2022/09/10 04:50:50;;;;;;;22.42;15.82;;;15.50;99.90;;;;;;5012990;28;20048;-72
2022/09/10 04:53:16;;;;;;;24.27;15.63;;;15.50;99.90;;;;;;4997054;28;20516;-70
2022/09/10 04:55:44;;;;;;;22.40;15.60;;;15.50;99.90;;;;;;5020071;28;20037;-71
2022/09/10 04:58:12;;;;;;;22.65;14.38;;;15.50;99.90;;;;;;5016835;28;20137;-71
2022/09/10 05:00:38;;;;;;;19.85;14.82;;;15.40;99.90;;;;;;4977545;28;20114;-71
2022/09/10 05:03:05;;;;;;;25.20;15.13;;;15.50;99.90;;;;;;5002622;28;20087;-71
2022/09/10 05:05:32;;;;;;;24.52;15.13;;;15.40;99.90;;;;;;5001987;28;20037;-73
2022/09/10 05:07:59;;;;;;;23.23;15.43;;;15.40;99.90;;;;;;5020198;28;20034;-71
2022/09/10 05:10:26;;;;;;;23.17;15.60;;;15.50;99.90;;;;;;5000985;28;20115;-71
2022/09/10 05:12:53;;;;;;;21.63;15.02;;;15.40;99.90;;;;;;5023236;28;20033;-72
2022/09/10 05:15:18;;;;;;;21.98;14.93;;;15.40;99.90;;;;;;4998858;28;20080;-71
2022/09/10 05:17:44;;;;;;;21.27;15.23;;;15.50;99.90;;;;;;5022101;28;20198;-71
2022/09/10 05:20:10;;;;;;;20.02;13.80;;;15.50;99.90;;;;;;5024411;28;20500;-72
2022/09/10 05:22:36;;;;;;;20.42;13.82;;;15.50;99.90;;;;;;5021590;28;20163;-71
2022/09/10 05:25:03;;;;;;;22.38;14.50;;;15.50;99.90;;;;;;4996532;28;20049;-71
2022/09/10 05:27:29;;;;;;;22.88;14.02;;;15.50;99.90;;;;;;4996604;28;20038;-70
2022/09/10 05:29:56;;;;;;;19.70;14.45;;;15.50;99.90;;;;;;5015984;28;20425;-71
2022/09/10 05:32:22;;;;;;;25.13;15.27;;;15.50;99.90;;;;;;5018621;28;20052;-70
2022/09/10 05:34:48;;;;;;;22.48;14.27;;;15.50;99.90;;;;;;5013214;28;20106;-71
2022/09/10 05:37:17;;;;;;;20.80;14.57;;;15.50;99.90;;;;;;5022200;28;20156;-71
2022/09/10 05:39:44;;;;;;;20.88;14.02;;;15.60;99.90;;;;;;5019350;28;20033;-70
2022/09/10 05:42:10;;;;;;;19.48;14.27;;;15.50;99.90;;;;;;5021346;28;20034;-71
2022/09/10 05:44:36;;;;;;;21.52;13.80;;;15.60;99.90;;;;;;5019519;28;20046;-71
2022/09/10 05:47:02;;;;;;;20.15;14.27;;;15.60;99.90;;;;;;4998671;28;20133;-71
2022/09/10 05:49:29;;;;;;;20.95;14.40;;;15.60;99.90;;;;;;5013327;28;20049;-71
2022/09/10 05:51:55;;;;;;;21.35;14.90;;;15.60;99.90;;;;;;5020061;28;20519;-71
2022/09/10 05:54:21;;;;;;;20.92;14.30;;;15.60;99.90;;;;;;5019024;28;20057;-71
2022/09/10 05:56:47;;;;;;;22.48;14.02;;;15.60;99.90;;;;;;5016837;28;20046;-71
2022/09/10 05:59:13;;;;;;;21.27;14.73;;;15.60;99.90;;;;;;5022248;28;20116;-71
2022/09/10 06:01:39;;;;;;;20.73;13.73;;;15.70;99.90;;;;;;5019677;28;20183;-71
2022/09/10 06:04:04;;;;;;;22.10;14.57;;;15.70;99.90;;;;;;5014606;28;20037;-71
2022/09/10 06:06:30;;;;;;;21.50;14.23;;;15.70;99.90;;;;;;5019167;28;20057;-71
2022/09/10 06:08:57;;;;;;;24.88;14.32;;;15.70;99.90;;;;;;5003910;28;20130;-71
2022/09/10 06:11:23;;;;;;;22.25;15.32;;;15.70;99.90;;;;;;4990333;28;20065;-71
2022/09/10 06:13:49;;;;;;;21.70;14.18;;;15.70;99.90;;;;;;5019750;28;20128;-71
2022/09/10 06:16:16;;;;;;;21.92;15.13;;;15.70;99.90;;;;;;4988111;28;20045;-70
2022/09/10 06:18:43;;;;;;;20.90;14.15;;;;;;;;;;5015230;28;20041;-70
2022/09/10 06:21:18;;;;;;;18.80;13.82;;;15.70;99.90;;;;;;5005600;28;20034;-70
2022/09/10 06:23:45;;;;;;;19.63;14.15;;;15.80;99.90;;;;;;5017625;28;20029;-71
2022/09/10 06:26:13;;;;;;;22.25;14.93;;;15.80;99.90;;;;;;5014144;28;20129;-71
2022/09/10 06:28:39;;;;;;;18.75;13.18;;;15.80;99.90;;;;;;5019497;28;20037;-71
2022/09/10 06:31:06;;;;;;;23.45;14.38;;;15.80;99.90;;;;;;5022072;28;20041;-71
2022/09/10 06:33:33;;;;;;;19.63;13.80;;;15.80;99.90;;;;;;4994174;28;20072;-70
2022/09/10 06:36:01;;;;;;;21.77;14.13;;;15.80;99.90;;;;;;4999620;28;20049;-71
2022/09/10 06:38:35;;;;;;;20.98;13.90;;;15.80;99.90;;;;;;5016108;28;20042;-71
2022/09/10 06:41:06;;;;;;;20.75;13.48;;;15.90;99.90;;;;;;4995518;28;20052;-71
2022/09/10 06:43:35;;;;;;;20.67;14.02;;;15.90;99.90;;;;;;5010760;28;20118;-70
2022/09/10 06:46:04;;;;;;;21.88;13.80;;;15.90;99.90;;;;;;4993304;28;20045;-71
2022/09/10 06:48:30;;;;;;;21.83;15.02;;;15.90;99.90;;;;;;5001002;28;20407;-72
2022/09/10 06:51:00;;;;;;;22.10;14.13;;;15.90;99.90;;;;;;5011841;28;20046;-72
2022/09/10 06:53:32;;;;;;;20.40;14.07;;;16.00;99.90;;;;;;4996513;28;21548;-71
2022/09/10 06:55:59;;;;;;;21.33;15.00;;;16.10;99.90;;;;;;5010495;28;20571;-71
2022/09/10 06:58:27;;;;;;;22.08;14.98;;;16.10;99.90;;;;;;5015652;28;20037;-71
2022/09/10 07:00:53;;;;;;;26.23;14.98;;;16.10;99.90;;;;;;5013205;28;20051;-71
2022/09/10 07:03:20;;;;;;;22.65;15.00;;;16.10;99.90;;;;;;5012302;28;20255;-71
2022/09/10 07:05:47;;;;;;;24.48;15.02;;;16.20;99.90;;;;;;5015945;28;20041;-71
2022/09/10 07:08:16;;;;;;;21.08;14.23;;;16.20;99.90;;;;;;5009743;28;20042;-71
2022/09/10 07:10:43;;;;;;;23.27;14.55;;;16.20;99.90;;;;;;5012405;28;20029;-71
2022/09/10 07:13:13;;;;;;;21.70;15.07;;;16.20;99.90;;;;;;5010817;28;20045;-70
2022/09/10 07:15:48;;;;;;;23.88;14.98;;;16.30;99.90;;;;;;5017793;28;20045;-71
2022/09/10 07:18:14;;;;;;;27.85;14.75;;;16.30;99.90;;;;;;5018737;28;20065;-72
2022/09/10 07:20:43;;;;;;;26.50;15.98;;;16.30;99.90;;;;;;5017941;28;20034;-72
2022/09/10 07:23:14;;;;;;;22.40;14.65;;;16.30;99.90;;;;;;5014905;28;20566;-72
2022/09/10 07:25:40;;;;;;;28.33;15.50;;;16.30;99.90;;;;;;5015159;28;20107;-71
2022/09/10 07:28:15;;;;;;;21.60;14.25;;;16.30;99.90;;;;;;5009431;28;20500;-72
2022/09/10 07:30:42;;;;;;;22.77;14.82;;;16.30;99.90;;;;;;5017900;28;20446;-71
2022/09/10 07:33:10;;;;;;;22.10;15.32;;;16.30;99.90;;;;;;4995727;28;20041;-73
2022/09/10 07:35:37;;;;;;;27.90;14.85;;;16.30;99.90;;;;;;5015084;28;20046;-71
2022/09/10 07:38:12;;;;;;;22.63;15.30;;;16.30;99.90;;;;;;5013081;28;20041;-76
2022/09/10 07:40:39;;;;;;;22.98;14.95;;;16.30;99.90;;;;;;5033734;28;20044;-72
2022/09/10 07:43:05;;;;;;;24.00;15.02;;;16.30;99.90;;;;;;5012542;28;20041;-71
2022/09/10 07:45:32;;;;;;;21.83;14.57;;;16.30;99.90;;;;;;5011976;28;20049;-72
2022/09/10 07:47:57;;;;;;;20.83;14.48;;;16.30;99.90;;;;;;5009122;28;20049;-72
2022/09/10 07:50:23;;;;;;;22.55;14.80;;;16.40;99.90;;;;;;4985017;28;20067;-72
2022/09/10 07:52:49;;;;;;;23.00;15.73;;;16.40;99.90;;;;;;4986412;28;20077;-72
2022/09/10 07:55:17;;;;;;;22.83;14.68;;;16.40;99.90;;;;;;5022745;28;20041;-72
2022/09/10 07:57:44;;;;;;;23.83;15.02;;;16.40;99.90;;;;;;5018097;28;20038;-71
2022/09/10 08:00:13;;;;;;;23.55;15.57;;;16.40;99.90;;;;;;5026365;28;20108;-72
2022/09/10 08:02:40;;;;;;;23.75;15.15;;;16.40;99.90;;;;;;5022794;28;20041;-71
2022/09/10 08:05:07;;;;;;;22.15;14.38;;;16.50;99.90;;;;;;5025051;28;20099;-71
2022/09/10 08:07:33;;;;;;;21.05;15.00;;;16.50;99.90;;;;;;4996618;28;20045;-72
2022/09/10 08:09:59;;;;;;;22.48;14.95;;;16.60;99.90;;;;;;5017967;28;20033;-71
2022/09/10 08:12:24;;;;;;;24.27;15.40;;;16.70;99.90;;;;;;5024773;28;20084;-72
2022/09/10 08:14:51;;;;;;;24.40;15.63;;;16.70;99.90;;;;;;5019888;28;20069;-71
2022/09/10 08:17:17;;;;;;;24.00;15.88;;;16.70;99.90;;;;;;4998658;28;20034;-72
2022/09/10 08:19:43;;;;;;;25.85;15.63;;;16.70;99.90;;;;;;5021781;28;20041;-71
2022/09/10 08:22:10;;;;;;;21.75;14.93;;;16.70;99.90;;;;;;5029424;28;20044;-72
2022/09/10 08:24:35;;;;;;;22.50;14.55;;;16.70;99.90;;;;;;5021672;28;20507;-71
2022/09/10 08:27:01;;;;;;;21.98;15.02;;;16.70;99.90;;;;;;5019332;28;20120;-71
2022/09/10 08:29:27;;;;;;;20.35;14.23;;;16.80;99.90;;;;;;5010817;28;20041;-73
2022/09/10 08:31:53;;;;;;;20.17;13.73;;;16.80;99.90;;;;;;5010209;28;20113;-73
2022/09/10 08:34:19;;;;;;;21.83;14.02;;;16.70;99.90;;;;;;5009062;28;20124;-73
2022/09/10 08:36:45;;;;;;;19.58;13.68;;;16.70;99.90;;;;;;5023361;28;20037;-71
2022/09/10 08:39:12;;;;;;;23.63;14.07;;;16.80;99.90;;;;;;5021344;28;20136;-72
2022/09/10 08:41:37;;;;;;;21.45;14.05;;;16.80;99.90;;;;;;5022823;28;20042;-73
2022/09/10 08:44:12;;;;;;;21.30;12.90;;;16.80;99.90;;;;;;4997888;28;20667;-72
2022/09/10 08:46:48;;;;;;;19.58;14.02;;;16.90;99.90;;;;;;5019854;28;20499;-72
2022/09/10 08:49:35;;;;;;;20.05;13.93;;;16.90;99.90;;;;;;5017539;28;20052;-72
2022/09/10 08:52:05;;;;;;;20.80;13.00;;;16.90;99.90;;;;;;5028350;28;20092;-71
2022/09/10 08:54:44;;;;;;;19.35;12.75;;;17.00;99.90;;;;;;5026294;28;20522;-73
2022/09/10 08:57:29;;;;;;;20.85;13.13;;;17.00;99.90;;;;;;5025330;28;20049;-71
2022/09/10 08:59:58;;;;;;;18.25;12.32;;;17.00;99.90;;;;;;5014243;28;20503;-71
2022/09/10 09:02:44;;;;;;;20.52;12.93;;;17.10;99.90;;;;;;5014467;28;20108;-71
2022/09/10 09:05:19;;;;;;;20.25;13.23;;;17.10;99.90;;;;;;5024815;28;20084;-72
2022/09/10 09:07:47;;;;;;;18.90;11.63;;;17.20;99.90;;;;;;5002420;28;20154;-72
2022/09/10 09:10:25;;;;;;;20.83;13.23;;;17.30;99.90;;;;;;5021695;28;20073;-73
2022/09/10 09:13:05;;;;;;;18.70;12.32;;;17.40;99.90;;;;;;5011978;28;20180;-72
2022/09/10 09:15:46;;;;;;;19.88;12.30;;;17.50;99.90;;;;;;5005207;28;20037;-71
2022/09/10 09:18:32;;;;;;;19.35;12.48;;;17.50;99.90;;;;;;5017579;28;20099;-72
2022/09/10 09:21:02;;;;;;;18.60;12.15;;;17.40;99.90;;;;;;4985163;28;20046;-72
2022/09/10 09:23:54;;;;;;;18.23;11.90;;;17.40;99.90;;;;;;5026407;28;20492;-72
2022/09/10 09:26:23;;;;;;;19.30;12.43;;;17.40;99.90;;;;;;5021415;28;20077;-73
2022/09/10 09:28:56;;;;;;;18.23;11.73;;;17.40;99.90;;;;;;4999454;28;20033;-72
2022/09/10 09:31:27;;;;;;;18.48;11.45;;;17.40;99.90;;;;;;5019590;28;20447;-71
2022/09/10 09:33:59;;;;;;;17.73;11.82;;;17.40;99.90;;;;;;5010368;28;20049;-73
2022/09/10 09:36:42;;;;;;;17.07;11.60;;;17.40;99.90;;;;;;5016128;28;20088;-73
2022/09/10 09:39:52;;;;;;;17.83;11.57;;;17.40;99.90;;;;;;5004283;28;20053;-73
2022/09/10 09:42:36;;;;;;;18.45;11.30;;;17.40;99.90;;;;;;4983101;28;20066;-71
2022/09/10 09:45:17;;;;;;;17.25;11.05;;;17.40;99.90;;;;;;5021253;28;20061;-71
2022/09/10 09:47:48;;;;;;;17.63;11.40;;;17.40;99.90;;;;;;5027995;28;20042;-71
2022/09/10 09:50:17;;;;;;;20.67;11.90;;;17.40;99.90;;;;;;5028132;28;20354;-72
2022/09/10 09:52:44;;;;;;;18.65;11.68;;;17.40;99.90;;;;;;5003668;28;20307;-72
2022/09/10 09:55:25;;;;;;;16.88;11.65;;;17.30;99.90;;;;;;5025219;28;20046;-72
2022/09/10 09:58:23;;;;;;;17.85;11.77;;;17.30;99.90;;;;;;5017930;28;20155;-72
2022/09/10 10:01:07;;;;;;;18.15;11.93;;;17.20;99.90;;;;;;5012217;28;20554;-70
2022/09/10 10:03:52;;;;;;;19.17;12.10;;;17.30;99.90;;;;;;5017588;28;20432;-72
2022/09/10 10:06:33;;;;;;;18.08;11.80;;;17.20;99.90;;;;;;5006399;28;20520;-72
2022/09/10 10:09:18;;;;;;;21.15;12.23;;;17.20;99.90;;;;;;5027983;28;20044;-73
2022/09/10 10:12:21;;;;;;;17.48;11.40;;;17.30;99.90;;;;;;5029370;28;20049;-72
2022/09/10 10:14:50;;;;;;;18.27;11.75;;;17.30;99.90;;;;;;5022052;28;20072;-71
2022/09/10 10:17:29;;;;;;;18.20;11.15;;;17.30;99.90;;;;;;5025025;28;20042;-71
2022/09/10 10:20:03;;;;;;;16.00;10.10;;;17.40;99.90;;;;;;5013206;28;20068;-74
2022/09/10 10:22:30;;;;;;;15.77;10.50;;;17.40;99.90;;;;;;5012795;28;20049;-73
2022/09/10 10:24:59;;;;;;;15.15;10.10;;;17.40;99.90;;;;;;5001474;28;20077;-73
2022/09/10 10:27:36;;;;;;;18.88;11.52;;;17.40;99.90;;;;;;5013042;28;20056;-71
2022/09/10 10:30:20;;;;;;;16.58;10.05;;;17.40;99.90;;;;;;5012950;28;20041;-72
2022/09/10 10:33:01;;;;;;;17.48;11.25;;;17.50;99.90;;;;;;5002049;28;20044;-73
2022/09/10 10:35:34;;;;;;;17.15;10.90;;;17.50;99.90;;;;;;5021430;28;20119;-73
2022/09/10 10:38:29;;;;;;;17.77;10.75;;;17.60;99.90;;;;;;5024074;28;20124;-71
2022/09/10 10:41:17;;;;;;;15.40;9.65;;;17.60;99.90;;;;;;4999747;28;20045;-71
2022/09/10 10:44:22;;;;;;;16.23;10.00;;;17.70;99.90;;;;;;5012235;28;20057;-71
2022/09/10 10:46:55;;;;;;;15.90;10.02;;;17.70;99.90;;;;;;5006931;28;20559;-72
2022/09/10 10:50:24;;;;;;;15.65;9.63;;;17.80;99.90;;;;;;5022816;28;20080;-71
2022/09/10 10:53:21;;;;;;;14.63;8.57;;;17.80;99.90;;;;;;4997648;28;20061;-72
2022/09/10 10:55:56;;;;;;;14.07;8.40;;;17.80;99.90;;;;;;5013090;28;20068;-73
2022/09/10 10:58:39;;;;;;;15.80;8.82;;;17.90;99.90;;;;;;5019316;28;20567;-73
2022/09/10 11:01:19;;;;;;;16.50;9.77;;;17.90;99.90;;;;;;5021402;28;20091;-72
2022/09/10 11:04:14;;;;;;;14.70;8.98;;;18.00;99.90;;;;;;5029022;28;20124;-72
2022/09/10 11:06:46;;;;;;;15.23;9.52;;;18.00;99.90;;;;;;5008009;28;20124;-72
2022/09/10 11:09:31;;;;;;;13.90;8.93;;;17.90;99.90;;;;;;5010238;28;20053;-72
2022/09/10 11:12:20;;;;;;;15.30;9.07;;;17.90;99.90;;;;;;5000328;28;20518;-72
2022/09/10 11:15:01;;;;;;;14.80;9.63;;;17.90;99.90;;;;;;5026448;28;20053;-72
2022/09/10 11:17:46;;;;;;;14.15;8.60;;;17.90;99.90;;;;;;5017534;28;20139;-71
2022/09/10 11:20:32;;;;;;;15.18;8.50;;;18.10;99.90;;;;;;5026520;28;20045;-73
2022/09/10 11:23:29;;;;;;;14.88;9.15;;;18.20;99.90;;;;;;5026360;28;20052;-71
2022/09/10 11:26:09;;;;;;;13.68;8.85;;;18.30;99.90;;;;;;5018818;28;20037;-73
2022/09/10 11:29:09;;;;;;;14.63;9.32;;;18.40;99.90;;;;;;5011392;28;20073;-72
2022/09/10 11:31:44;;;;;;;14.05;9.10;;;18.50;99.90;;;;;;5024617;28;20033;-72
2022/09/10 11:34:27;;;;;;;16.40;9.67;;;18.50;99.90;;;;;;5028323;28;20554;-72
2022/09/10 11:37:15;;;;;;;;;;;18.70;99.90;;;;;;5031394;28;20042;-72
2022/09/10 11:39:47;;;;;;;14.07;8.35;;;18.70;99.90;;;;;;5030519;28;19971;-74
2022/09/10 11:42:39;;;;;;;18.48;8.32;;;18.80;99.90;;;;;;5031320;28;20052;-72
2022/09/10 11:45:44;;;;;;;12.85;8.52;;;18.80;99.90;;;;;;5029494;28;20082;-72
2022/09/10 11:48:18;;;;;;;11.57;6.95;;;18.80;99.90;;;;;;5019928;28;20077;-73
2022/09/10 11:51:09;;;;;;;15.18;8.10;;;18.90;99.90;;;;;;5014928;28;20103;-73
2022/09/10 11:53:35;;;;;;;12.07;7.57;;;18.90;99.90;;;;;;5020734;28;20053;-73
2022/09/10 11:56:25;;;;;;;13.25;7.80;;;18.90;99.90;;;;;;5016221;28;20034;-73
2022/09/10 11:59:12;;;;;;;12.52;7.35;;;20.00;99.90;;;;;;5025397;28;20124;-72
2022/09/10 12:02:15;;;;;;;11.55;6.93;;;18.90;99.90;;;;;;5017817;28;20050;-72
2022/09/10 12:04:49;;;;;;;12.65;7.10;;;19.10;99.90;;;;;;5021969;28;20147;-73
2022/09/10 12:07:45;;;;;;;13.40;7.43;;;19.30;99.90;;;;;;5026396;28;20081;-74
2022/09/10 12:10:22;;;;;;;11.55;7.07;;;19.30;99.90;;;;;;5019436;28;20318;-73
2022/09/10 12:12:48;;;;;;;11.50;6.68;;;19.40;99.90;;;;;;5016469;28;20038;-72
2022/09/10 12:15:25;;;;;;;13.10;7.00;;;19.70;99.90;;;;;;4997154;28;20050;-72
2022/09/10 12:18:20;;;;;;;11.43;6.43;;;19.80;99.90;;;;;;5000348;28;20449;-73
2022/09/10 12:20:56;;;;;;;11.32;6.82;;;20.00;99.90;;;;;;5017305;28;20098;-72
2022/09/10 12:23:30;;;;;;;11.48;6.65;;;20.00;99.90;;;;;;5018466;28;20038;-72
2022/09/10 12:26:08;;;;;;;11.73;6.50;;;19.90;99.90;;;;;;5019741;28;20103;-72
2022/09/10 12:28:44;;;;;;;11.52;6.68;;;19.80;99.90;;;;;;5014531;28;20052;-73
2022/09/10 12:31:13;;;;;;;12.43;6.88;;;19.70;99.90;;;;;;5009018;28;20038;-72
2022/09/10 12:33:42;;;;;;;11.60;6.47;;;19.70;99.90;;;;;;5000610;28;20030;-73
2022/09/10 12:36:28;;;;;;;11.75;6.50;;;19.60;99.90;;;;;;5011958;28;20451;-72
2022/09/10 12:39:26;;;;;;;10.63;6.22;;;19.60;99.90;;;;;;5032364;28;20685;-71
2022/09/10 12:41:52;;;;;;;11.13;6.10;;;19.70;99.90;;;;;;4993463;28;20046;-73
2022/09/10 12:44:36;;;;;;;12.63;6.32;;;19.90;99.90;;;;;;5026620;28;20041;-73
2022/09/10 12:47:14;;;;;;;10.95;5.70;;;20.30;99.90;;;;;;5032525;28;20041;-72
2022/09/10 12:50:16;;;;;;;10.40;5.68;;;20.30;99.90;;;;;;5002165;28;20046;-73
2022/09/10 12:53:06;;;;;;;11.65;6.10;;;20.50;99.90;;;;;;5016835;28;20520;-72
2022/09/10 12:56:10;;;;;;;9.93;4.82;;;20.80;99.90;;;;;;5014497;28;20053;-72
2022/09/10 12:58:39;;;;;;;;;;;20.90;99.90;;;;;;5031658;28;20048;-72